Strona główna
METAR-TAF:

METAR-TAF

Lotnisko :

New Castle, Pensylwania, Stany Zjednoczone

Szerokość geograficzna: 41-01-31N, Długość geograficzna: 080-24-48W, wysokość: 326 m

Aktualna obserwacja pogody

Raport powstał 36 minut temu, godzina 18:56 UTC
Wiatr 6 kt z kierunków zmiennych
Temperatura 8°C
Wilgotność 61%
Ciśnienie 1020 hPa
Widzialność: 16.1 km
Mało chmury na wysokości 3400 ft
Zachmurzenie całkowite na wysokości 5500 ft

METAR: KUCP 081856Z AUTO VRB06KT 10SM FEW034 OVC055 08/01 A3012 RMK AO2 SLP222 T00780006

czas: 14:32 (19:32 UTC)


TAF: brakujący

Obserwacja i prognoza pogody dla ponad 4000 lotnisk (raport METAR i TAF).

Dostępne stacje oznaczono żółtymi i czerwonymi punktami na mapie.

Najedź kursorem aby zobaczyć nazwę stacji.

Kliknij aby zobaczyć obserwacje i prognozy pogody.

Aby zmienić mapę: kliknij na zielony przycisk z czarnym krzyżykiem, aby powiększyć; na zielony przycisk z myślnikiem, aby pomniejszyć; na zielone strzałki, aby przejść do map sąsiednich.


METAR-TAF: